createdAt,value
2019-04-20T03:28:28.030Z,8.20
2019-04-20T03:29:18.877Z,8.80
2019-04-20T03:31:04.046Z,9.20
2019-04-20T03:31:45.000Z,9.10
2019-04-20T03:32:49.901Z,9.00
2019-04-20T03:33:41.373Z,9.20
2019-04-20T03:34:55.605Z,9.70
2019-04-20T03:35:28.609Z,10.10
2019-04-20T03:36:50.022Z,9.30
2019-04-20T03:37:33.401Z,9.80
2019-04-20T03:38:19.810Z,8.90
2019-04-20T03:39:25.581Z,9.80
2019-04-20T03:40:17.371Z,9.80
2019-04-20T03:41:16.542Z,9.60
2019-04-20T03:42:06.806Z,9.80
2019-04-20T03:43:05.592Z,9.70
2019-04-20T03:44:09.953Z,9.30
2019-04-20T03:45:10.793Z,9.60
2019-04-20T03:46:08.304Z,9.10
2019-04-20T03:47:08.803Z,9.30
2019-04-20T03:48:16.078Z,9.00
2019-04-20T03:49:20.073Z,9.30
2019-04-20T03:50:33.646Z,10.10
2019-04-20T03:51:32.007Z,9.60
2019-04-20T03:52:26.287Z,9.40
2019-04-20T03:53:22.872Z,9.10
2019-04-20T03:54:20.159Z,10.10
2019-04-20T03:55:24.321Z,9.50
2019-04-20T03:56:28.340Z,9.90
2019-04-20T03:57:26.568Z,9.60
2019-04-20T03:58:24.366Z,10.30
2019-04-20T03:59:16.096Z,10.60
2019-04-20T04:00:22.066Z,9.90
2019-04-20T04:01:35.907Z,10.00
2019-04-20T04:03:34.936Z,10.40
2019-04-20T04:04:27.673Z,10.60
2019-04-20T04:05:23.866Z,9.80
2019-04-20T04:06:14.771Z,10.60
2019-04-20T04:07:15.366Z,10.70
2019-04-20T04:08:14.674Z,10.70
2019-04-20T04:09:16.443Z,10.20
2019-04-20T04:10:17.278Z,10.20
2019-04-20T04:11:21.007Z,10.40
2019-04-20T04:12:15.398Z,10.80
2019-04-20T04:13:05.158Z,10.60
2019-04-20T04:14:05.142Z,11.00
2019-04-20T04:15:06.418Z,10.30
2019-04-20T04:16:08.689Z,11.40
2019-04-20T04:17:05.859Z,10.40
2019-04-20T04:18:13.874Z,11.10
2019-04-20T04:19:12.784Z,10.80
2019-04-20T04:20:10.126Z,10.20
2019-04-20T04:21:10.043Z,11.90
2019-04-20T04:22:18.060Z,11.80
2019-04-20T04:23:22.234Z,11.30
2019-04-20T04:24:17.035Z,11.10
2019-04-20T04:25:15.913Z,12.00
2019-04-20T04:26:22.280Z,11.50
2019-04-20T04:27:22.499Z,11.10
2019-04-20T04:28:20.675Z,12.20
2019-04-20T04:29:26.856Z,12.50
2019-04-20T04:30:20.698Z,12.20
2019-04-20T04:31:22.868Z,13.00
2019-04-20T04:33:45.709Z,13.60
2019-04-20T04:34:27.853Z,13.40
2019-04-20T04:35:17.053Z,13.00
2019-04-20T04:36:21.151Z,12.90
2019-04-20T04:37:24.164Z,12.50
2019-04-20T04:38:27.328Z,12.60
2019-04-20T04:39:26.386Z,11.90
2019-04-20T04:40:32.754Z,11.60
2019-04-20T04:42:30.389Z,12.00
2019-04-20T04:43:25.395Z,12.40
2019-04-20T04:44:19.379Z,12.50
2019-04-20T04:45:10.667Z,12.60
2019-04-20T04:46:05.811Z,12.60
2019-04-20T04:47:08.041Z,12.50
2019-04-20T04:48:06.748Z,11.90
2019-04-20T04:49:14.929Z,12.40
2019-04-20T04:50:11.614Z,13.20
2019-04-20T04:51:11.957Z,13.40
2019-04-20T04:52:10.373Z,12.50
2019-04-20T04:53:13.408Z,12.10
2019-04-20T04:54:16.422Z,12.30
2019-04-20T04:55:17.117Z,12.10
2019-04-20T04:56:10.993Z,12.50
2019-04-20T04:57:05.323Z,12.80
2019-04-20T04:58:06.384Z,12.30
2019-04-20T04:59:06.429Z,12.00
2019-04-20T05:00:05.667Z,12.00
2019-04-20T05:01:12.690Z,12.20
2019-04-20T05:02:05.364Z,12.50
2019-04-20T05:03:23.411Z,13.00
2019-04-20T05:04:43.099Z,12.80
2019-04-20T05:05:23.834Z,12.00
2019-04-20T05:06:25.049Z,12.90
2019-04-20T05:07:16.052Z,12.60
2019-04-20T05:08:17.397Z,12.60
2019-04-20T05:09:09.056Z,12.00
2019-04-20T05:10:05.674Z,12.40
2019-04-20T05:11:05.337Z,12.50
2019-04-20T05:12:11.868Z,12.80
2019-04-20T05:13:05.327Z,12.50
2019-04-20T05:14:10.134Z,12.40
2019-04-20T05:15:14.284Z,11.30
2019-04-20T05:16:19.379Z,12.00
2019-04-20T05:17:20.684Z,12.10
2019-04-20T05:18:28.601Z,12.10
2019-04-20T05:19:41.245Z,12.10
2019-04-20T05:20:23.034Z,11.90
2019-04-20T05:21:25.300Z,11.80
2019-04-20T05:22:26.151Z,12.10
2019-04-20T05:23:22.022Z,11.60
2019-04-20T05:24:22.622Z,11.10
2019-04-20T05:25:25.146Z,11.20
2019-04-20T05:26:25.615Z,11.50
2019-04-20T05:27:24.909Z,11.20
2019-04-20T05:28:20.696Z,11.50
2019-04-20T05:29:14.482Z,11.10
2019-04-20T05:30:05.791Z,11.30
2019-04-20T05:31:07.994Z,11.30
2019-04-20T05:32:12.458Z,11.80
2019-04-20T05:33:09.071Z,11.30
2019-04-20T05:34:25.776Z,11.30
2019-04-20T05:35:26.598Z,11.00
2019-04-20T05:36:23.554Z,11.10
2019-04-20T05:37:33.385Z,11.20
2019-04-20T05:38:32.491Z,11.40
2019-04-20T05:39:32.666Z,10.90
2019-04-20T05:40:29.326Z,11.50
2019-04-20T05:41:24.059Z,10.80
2019-04-20T05:42:29.999Z,11.40
2019-04-20T05:43:23.758Z,11.30
2019-04-20T05:44:22.079Z,10.90
2019-04-20T05:45:20.534Z,11.10
2019-04-20T05:46:26.170Z,11.70
2019-04-20T05:47:26.699Z,11.00
2019-04-20T05:48:22.163Z,11.40
2019-04-20T05:49:25.842Z,11.00
2019-04-20T05:50:29.051Z,11.30
2019-04-20T05:51:29.464Z,11.20
2019-04-20T05:52:35.064Z,11.50
2019-04-20T05:53:26.440Z,11.30
2019-04-20T05:54:26.802Z,11.60
2019-04-20T05:55:31.870Z,10.90
2019-04-20T05:56:32.773Z,11.00
2019-04-20T05:57:30.231Z,11.30
2019-04-20T05:58:26.101Z,11.70
2019-04-20T05:59:23.414Z,11.00
2019-04-20T06:00:32.049Z,11.80
2019-04-20T06:01:25.224Z,10.90
2019-04-20T06:02:29.410Z,11.50
2019-04-20T06:03:26.146Z,12.00
2019-04-20T06:04:38.814Z,11.70
2019-04-20T06:05:27.534Z,11.10
2019-04-20T06:06:27.624Z,11.40
2019-04-20T06:07:42.365Z,11.90
2019-04-20T06:08:41.696Z,11.70
2019-04-20T06:09:27.559Z,11.70
2019-04-20T06:10:34.675Z,11.40
2019-04-20T06:11:25.575Z,11.50
2019-04-20T06:12:32.005Z,12.10
2019-04-20T06:13:17.385Z,11.50
2019-04-20T06:14:15.197Z,11.30
2019-04-20T06:15:22.413Z,12.10
2019-04-20T06:16:23.102Z,12.00
2019-04-20T06:17:28.553Z,12.50
2019-04-20T06:19:31.975Z,12.00
2019-04-20T06:20:33.426Z,12.60
2019-04-20T06:21:33.768Z,11.80
2019-04-20T06:22:31.434Z,12.70
2019-04-20T06:23:34.008Z,11.80
2019-04-20T06:24:38.065Z,12.10
2019-04-20T06:26:43.713Z,11.70
2019-04-20T06:27:32.734Z,12.00
2019-04-20T06:28:22.010Z,12.20
2019-04-20T06:29:23.548Z,12.50
2019-04-20T06:30:21.476Z,11.90
2019-04-20T06:31:42.218Z,11.90
2019-04-20T06:32:33.951Z,11.60
2019-04-20T06:34:33.399Z,12.00
2019-04-20T06:35:42.816Z,11.90
2019-04-20T06:36:35.366Z,11.20
2019-04-20T06:37:23.257Z,11.40
2019-04-20T06:38:44.288Z,11.50
2019-04-20T06:40:50.218Z,11.70
2019-04-20T06:41:43.266Z,11.80
2019-04-20T06:42:23.052Z,11.70
2019-04-20T06:43:36.888Z,11.30
2019-04-20T06:44:33.208Z,11.70
2019-04-20T06:45:35.018Z,11.90
2019-04-20T06:46:28.358Z,11.60
2019-04-20T06:47:29.428Z,11.30
2019-04-20T06:48:36.346Z,11.00
2019-04-20T06:50:22.637Z,11.10
2019-04-20T06:51:28.790Z,11.00
2019-04-20T06:52:39.761Z,11.20
2019-04-20T06:53:31.883Z,11.00
2019-04-20T06:54:17.612Z,11.10
2019-04-20T06:55:36.856Z,11.10
2019-04-20T06:56:29.422Z,11.00
2019-04-20T06:57:31.392Z,10.90
2019-04-20T06:58:39.536Z,11.30
2019-04-20T06:59:33.482Z,10.70
2019-04-20T07:00:25.993Z,10.90
2019-04-20T07:01:37.259Z,11.40
2019-04-20T07:02:44.663Z,11.40
2019-04-20T07:03:45.286Z,10.90
2019-04-20T07:04:41.916Z,10.20
2019-04-20T07:05:28.668Z,10.40
2019-04-20T07:06:43.511Z,10.60
2019-04-20T07:07:32.475Z,11.10
2019-04-20T07:08:45.191Z,10.90
2019-04-20T07:09:45.217Z,10.80
2019-04-20T07:10:33.924Z,11.40
2019-04-20T07:11:28.266Z,10.80
2019-04-20T07:12:27.369Z,10.60
2019-04-20T07:13:23.974Z,10.40
2019-04-20T07:14:17.611Z,10.80
2019-04-20T07:15:22.815Z,10.90
2019-04-20T07:16:28.319Z,10.50
2019-04-20T07:18:31.268Z,10.40
2019-04-20T07:19:30.038Z,10.80
2019-04-20T07:20:35.099Z,10.40
2019-04-20T07:21:45.150Z,10.20
2019-04-20T07:24:38.429Z,10.30
2019-04-20T07:25:34.557Z,10.90
2019-04-20T07:26:31.895Z,10.00
2019-04-20T07:27:34.178Z,10.70
2019-04-20T07:28:32.849Z,10.50
2019-04-20T07:29:35.372Z,10.10
2019-04-20T07:30:29.671Z,11.20
2019-04-20T07:31:23.033Z,10.90
2019-04-20T07:32:46.331Z,10.80
2019-04-20T07:34:31.842Z,10.80
2019-04-20T07:35:34.418Z,11.10
2019-04-20T07:36:42.725Z,10.50
2019-04-20T07:38:07.018Z,10.60
2019-04-20T07:39:32.787Z,11.10
2019-04-20T07:40:35.954Z,11.80
2019-04-20T07:41:44.586Z,11.00
2019-04-20T07:42:35.071Z,11.00
2019-04-20T07:43:32.023Z,11.00
2019-04-20T07:44:41.404Z,10.80
2019-04-20T07:46:47.125Z,10.50
2019-04-20T07:48:01.607Z,10.80
2019-04-20T07:48:35.069Z,11.40
2019-04-20T07:49:35.757Z,11.20
2019-04-20T07:50:26.171Z,11.30
2019-04-20T07:51:21.335Z,11.40
2019-04-20T07:52:14.332Z,11.90
2019-04-20T07:53:32.156Z,11.40
2019-04-20T07:54:38.680Z,11.60
2019-04-20T07:55:37.067Z,11.50
2019-04-20T07:56:40.731Z,11.70
2019-04-20T07:57:31.049Z,11.20
2019-04-20T07:58:25.279Z,11.70
2019-04-20T07:59:25.203Z,11.30
2019-04-20T08:00:41.908Z,10.70
2019-04-20T08:01:38.855Z,11.00
2019-04-20T08:02:38.132Z,10.20
2019-04-20T08:03:50.414Z,11.00
2019-04-20T08:04:32.590Z,11.30
2019-04-20T08:05:27.858Z,10.40
2019-04-20T08:06:21.349Z,10.50
2019-04-20T08:07:14.605Z,11.10
2019-04-20T08:08:30.803Z,11.20
2019-04-20T08:09:22.214Z,10.70
2019-04-20T08:10:32.547Z,10.80
2019-04-20T08:11:36.667Z,11.20
2019-04-20T08:12:42.033Z,11.70
2019-04-20T08:13:43.078Z,10.60
2019-04-20T08:14:39.927Z,10.60
2019-04-20T08:15:46.062Z,10.60
2019-04-20T08:16:41.051Z,10.60
2019-04-20T08:17:40.371Z,10.90
2019-04-20T08:18:52.245Z,10.90
2019-04-20T08:19:35.354Z,10.60
2019-04-20T08:20:33.071Z,10.60
2019-04-20T08:21:38.778Z,10.60
2019-04-20T08:22:35.516Z,10.70
2019-04-20T08:23:33.614Z,10.00
2019-04-20T08:24:32.807Z,10.30
2019-04-20T08:25:23.553Z,10.00
2019-04-20T08:26:30.242Z,10.20
2019-04-20T08:28:25.007Z,10.60
2019-04-20T08:29:30.122Z,10.00
2019-04-20T08:30:33.855Z,10.20
2019-04-20T08:31:33.743Z,10.00
2019-04-20T08:32:38.740Z,10.60
2019-04-20T08:33:44.327Z,10.30
2019-04-20T08:36:25.735Z,10.10
2019-04-20T08:40:17.700Z,9.70
2019-04-20T08:42:07.430Z,9.70
2019-04-20T08:43:32.702Z,10.10
2019-04-20T08:45:17.989Z,9.70
2019-04-20T08:46:15.091Z,9.00
2019-04-20T08:47:21.480Z,9.00
2019-04-20T08:48:31.016Z,9.00
